Time;durP1;ratioP1;P1;durP2;ratioP2;P2;SDS_P1;SDS_P2;PMS_P1;PMS_P2;Temp;Humidity;BMP_temperature;BMP_pressure;BME280_temperature;BME280_humidity;BME280_pressure;Samples;Min_cycle;Max_cycle;Signal;HPM_P1;HPM_P2
2021/04/15 00:02:08;;;;;;;2.27;1.00;;;22.50;84.50;;;;;;4957335;28;20294;-90
2021/04/15 00:04:39;;;;;;;2.50;0.90;;;22.60;84.80;;;;;;4957327;29;20207;-91
2021/04/15 00:07:09;;;;;;;3.97;1.10;;;22.50;85.70;;;;;;4960174;28;20704;-92
2021/04/15 00:09:44;;;;;;;1.50;0.90;;;22.50;86.50;;;;;;4958058;28;20219;-92
2021/04/15 00:12:15;;;;;;;1.90;0.63;;;22.50;82.60;;;;;;4958213;28;20254;-92
2021/04/15 00:14:46;;;;;;;3.73;0.97;;;22.50;81.00;;;;;;4960959;28;20459;-92
2021/04/15 00:17:17;;;;;;;3.10;0.67;;;22.60;79.20;;;;;;4957750;29;20251;-92
2021/04/15 00:19:51;;;;;;;0.93;0.77;;;22.60;79.80;;;;;;4960742;29;20299;-92
2021/04/15 00:22:22;;;;;;;3.13;0.90;;;22.50;79.40;;;;;;4957523;28;20231;-93
2021/04/15 00:24:54;;;;;;;1.13;0.90;;;22.50;79.30;;;;;;4959370;28;20208;-91
2021/04/15 00:27:24;;;;;;;3.60;1.07;;;22.50;77.40;;;;;;4961597;28;20232;-89
2021/04/15 00:29:54;;;;;;;1.87;0.90;;;22.20;78.60;;;;;;4957672;29;20227;-91
2021/04/15 00:32:25;;;;;;;2.47;0.70;;;22.10;81.40;;;;;;4957202;28;20212;-90
2021/04/15 00:34:56;;;;;;;0.93;0.73;;;22.00;79.70;;;;;;4957447;28;20700;-90
2021/04/15 00:37:27;;;;;;;2.07;1.07;;;22.00;77.10;;;;;;4959738;28;20214;-90
2021/04/15 00:39:59;;;;;;;3.93;1.00;;;21.90;76.20;;;;;;4960256;28;20219;-90
2021/04/15 00:42:31;;;;;;;2.73;1.20;;;21.80;79.00;;;;;;4972521;28;20223;-90
2021/04/15 00:45:08;;;;;;;2.13;1.03;;;21.70;78.20;;;;;;4978741;28;20235;-89
2021/04/15 00:47:41;;;;;;;1.77;0.97;;;21.70;77.90;;;;;;4978866;28;20242;-90
2021/04/15 00:50:18;;;;;;;2.87;0.90;;;21.50;79.10;;;;;;4962867;28;20669;-89
2021/04/15 00:52:54;;;;;;;2.20;1.10;;;21.50;78.80;;;;;;4974253;28;20223;-90
2021/04/15 00:55:30;;;;;;;3.27;1.10;;;21.50;78.00;;;;;;4958902;28;20203;-89
2021/04/15 00:58:01;;;;;;;2.20;0.80;;;21.40;79.10;;;;;;4957124;28;20211;-90
2021/04/15 01:00:34;;;;;;;3.47;1.10;;;21.50;80.10;;;;;;4956740;28;20208;-90
2021/04/15 01:03:05;;;;;;;1.63;0.90;;;21.40;79.50;;;;;;4957718;28;20263;-89
2021/04/15 01:05:39;;;;;;;3.40;0.80;;;21.40;79.00;;;;;;4956756;28;20250;-89
2021/04/15 01:08:10;;;;;;;2.27;1.00;;;21.10;78.70;;;;;;4958071;28;20230;-89
2021/04/15 01:10:46;;;;;;;4.77;0.80;;;21.10;79.30;;;;;;4957294;29;20227;-90
2021/04/15 01:13:35;;;;;;;2.73;1.00;;;21.30;80.90;;;;;;4956388;28;20203;-90
2021/04/15 01:16:16;;;;;;;3.27;1.00;;;21.60;80.20;;;;;;4957656;28;20242;-91
2021/04/15 01:18:51;;;;;;;1.27;0.90;;;21.80;78.60;;;;;;4956462;28;20262;-91
2021/04/15 01:21:48;;;;;;;3.03;1.00;;;21.90;79.40;;;;;;4961762;28;20246;-90
2021/04/15 01:24:25;;;;;;;1.33;0.90;;;22.00;77.80;;;;;;4977874;28;20265;-91
2021/04/15 01:27:19;;;;;;;2.60;0.90;;;21.90;76.90;;;;;;4978646;28;20313;-91
2021/04/15 01:29:58;;;;;;;2.87;1.00;;;21.50;77.00;;;;;;4977290;28;20261;-91
2021/04/15 01:32:31;;;;;;;1.93;0.93;;;21.20;76.70;;;;;;4976698;28;20289;-90
2021/04/15 01:35:06;;;;;;;1.17;1.00;;;20.90;77.30;;;;;;4977268;28;20298;-91
2021/04/15 01:37:42;;;;;;;5.23;1.00;;;20.40;77.20;;;;;;4983705;28;20214;-91
2021/04/15 01:40:21;;;;;;;2.63;1.03;;;19.90;78.10;;;;;;4956531;29;20239;-90
2021/04/15 01:42:59;;;;;;;1.10;0.80;;;19.80;77.60;;;;;;4955674;28;20207;-91
2021/04/15 01:45:32;;;;;;;4.33;1.10;;;19.60;78.80;;;;;;4957980;28;20314;-91
2021/04/15 01:48:06;;;;;;;2.77;1.00;;;19.60;79.20;;;;;;4956493;29;20267;-92
2021/04/15 01:50:41;;;;;;;3.03;0.83;;;19.60;78.80;;;;;;4956314;28;20288;-92
2021/04/15 01:53:16;;;;;;;2.33;0.93;;;19.30;78.70;;;;;;4955769;28;20237;-92
2021/04/15 01:55:52;;;;;;;2.20;0.87;;;19.10;79.50;;;;;;4956556;28;20215;-92
2021/04/15 01:58:27;;;;;;;1.77;0.90;;;18.80;79.40;;;;;;4960903;28;20219;-92
2021/04/15 02:01:05;;;;;;;1.73;1.00;;;18.50;80.70;;;;;;4975520;28;20218;-92
2021/04/15 02:03:38;;;;;;;2.37;1.00;;;18.30;79.80;;;;;;4977358;28;20211;-92
2021/04/15 02:06:15;;;;;;;3.47;1.00;;;18.10;81.70;;;;;;4981102;28;20222;-92
2021/04/15 02:08:49;;;;;;;3.47;1.00;;;17.80;80.70;;;;;;4981885;28;20218;-93
2021/04/15 02:11:23;;;;;;;2.70;0.93;;;17.70;80.30;;;;;;4981050;28;20230;-91
2021/04/15 02:13:56;;;;;;;1.70;1.10;;;17.50;82.20;;;;;;4980820;28;20687;-92
2021/04/15 02:16:31;;;;;;;1.77;1.00;;;17.40;81.50;;;;;;4981160;28;20253;-93
2021/04/15 02:19:07;;;;;;;2.67;1.30;;;17.30;81.30;;;;;;4983620;28;20601;-93
2021/04/15 02:21:43;;;;;;;2.60;0.80;;;17.10;81.30;;;;;;4982224;28;20632;-93
2021/04/15 02:24:25;;;;;;;2.87;0.93;;;17.10;81.70;;;;;;4980777;28;20242;-93
2021/04/15 02:27:04;;;;;;;5.83;0.93;;;16.90;82.60;;;;;;4978834;28;20407;-92
2021/04/15 02:29:39;;;;;;;2.10;0.90;;;16.80;81.10;;;;;;4981813;28;20600;-93
2021/04/15 02:32:18;;;;;;;3.43;0.80;;;16.70;80.30;;;;;;4989810;28;20293;-92
2021/04/15 02:34:55;;;;;;;4.23;1.20;;;16.60;81.10;;;;;;4998183;28;20202;-93
2021/04/15 02:37:33;;;;;;;4.40;1.00;;;16.50;82.10;;;;;;5000626;28;20206;-93
2021/04/15 02:40:10;;;;;;;2.60;1.00;;;16.40;81.20;;;;;;4997572;28;20202;-92
2021/04/15 02:42:43;;;;;;;2.23;1.20;;;16.30;81.80;;;;;;4997312;28;20209;-92
2021/04/15 02:45:23;;;;;;;1.00;0.80;;;16.20;81.10;;;;;;4997692;28;20702;-92
2021/04/15 02:48:01;;;;;;;1.67;1.00;;;16.10;83.00;;;;;;4997533;28;20655;-92
2021/04/15 02:50:33;;;;;;;3.57;1.20;;;16.00;81.20;;;;;;4998542;28;20206;-92
2021/04/15 02:53:11;;;;;;;3.17;1.00;;;15.90;82.40;;;;;;4997331;28;20210;-92
2021/04/15 02:55:48;;;;;;;2.13;1.10;;;15.80;83.90;;;;;;4996821;28;20253;-92
2021/04/15 02:58:26;;;;;;;3.33;1.10;;;15.50;84.40;;;;;;5000705;28;20206;-92
2021/04/15 03:00:58;;;;;;;1.70;1.27;;;15.40;84.20;;;;;;5005013;28;20274;-92
2021/04/15 03:03:36;;;;;;;5.77;1.80;;;15.30;83.00;;;;;;5003567;28;20210;-91
2021/04/15 03:06:10;;;;;;;3.63;2.10;;;15.20;84.70;;;;;;5015444;28;20202;-92
2021/04/15 03:08:43;;;;;;;3.60;1.50;;;15.00;88.30;;;;;;5017799;28;20209;-92
2021/04/15 03:11:18;;;;;;;3.83;1.93;;;14.90;86.40;;;;;;5017546;28;20203;-92
2021/04/15 03:13:52;;;;;;;4.37;1.87;;;14.80;87.30;;;;;;5009166;28;20649;-91
2021/04/15 03:16:25;;;;;;;3.17;1.70;;;14.60;87.20;;;;;;5008018;28;20245;-92
2021/04/15 03:19:03;;;;;;;3.97;1.43;;;14.50;89.20;;;;;;5007036;28;20206;-91
2021/04/15 03:21:40;;;;;;;2.63;1.53;;;14.30;90.70;;;;;;5003967;28;20752;-91
2021/04/15 03:24:16;;;;;;;3.47;1.20;;;14.20;90.80;;;;;;5004183;28;20206;-91
2021/04/15 03:26:53;;;;;;;2.57;1.70;;;14.10;90.90;;;;;;5004186;28;20248;-92
2021/04/15 03:29:28;;;;;;;3.43;1.40;;;14.00;90.70;;;;;;5007935;28;20216;-92
2021/04/15 03:32:14;;;;;;;2.63;1.60;;;13.90;90.80;;;;;;5010840;28;20186;-92
2021/04/15 03:34:53;;;;;;;3.60;1.50;;;13.70;90.30;;;;;;4994491;28;20215;-89
2021/04/15 03:37:30;;;;;;;2.63;1.40;;;13.60;91.40;;;;;;4989037;28;20218;-92
2021/04/15 03:40:02;;;;;;;3.90;1.60;;;13.50;91.50;;;;;;4980852;28;20258;-92
2021/04/15 03:42:39;;;;;;;2.43;1.50;;;13.40;92.10;;;;;;4978546;28;20215;-92
2021/04/15 03:45:16;;;;;;;3.27;1.17;;;13.30;92.00;;;;;;4978170;28;20211;-91
2021/04/15 03:47:49;;;;;;;3.10;1.10;;;13.10;92.00;;;;;;4979447;28;20241;-91
2021/04/15 03:50:25;;;;;;;4.37;1.33;;;13.10;92.00;;;;;;4978516;28;20218;-92
2021/04/15 03:53:00;;;;;;;4.00;1.20;;;13.10;92.30;;;;;;4977836;28;20210;-92
2021/04/15 03:55:35;;;;;;;2.77;1.27;;;12.90;92.40;;;;;;4978316;28;20202;-92
2021/04/15 03:58:11;;;;;;;2.00;1.23;;;12.80;92.50;;;;;;4977696;28;20210;-91
2021/04/15 04:00:48;;;;;;;3.67;1.20;;;12.70;92.70;;;;;;4977698;28;20203;-92
2021/04/15 04:03:21;;;;;;;2.33;1.10;;;12.70;92.70;;;;;;4957262;28;20211;-92
2021/04/15 04:06:00;;;;;;;3.50;1.13;;;12.60;92.90;;;;;;4957927;29;20579;-91
2021/04/15 04:08:41;;;;;;;2.73;1.20;;;12.60;92.80;;;;;;4958216;28;20211;-92
2021/04/15 04:11:15;;;;;;;1.93;1.20;;;12.50;93.00;;;;;;4957676;28;20239;-92
2021/04/15 04:13:49;;;;;;;1.30;1.20;;;12.40;93.20;;;;;;4958221;28;20215;-92
2021/04/15 04:16:25;;;;;;;2.20;1.20;;;12.40;93.40;;;;;;4958141;28;20212;-93
2021/04/15 04:19:02;;;;;;;2.20;1.20;;;12.30;93.20;;;;;;4960789;28;20223;-93
2021/04/15 04:21:45;;;;;;;1.80;1.17;;;12.20;93.40;;;;;;4957176;28;20288;-92
2021/04/15 04:24:22;;;;;;;4.90;1.50;;;12.10;93.30;;;;;;4959927;28;20554;-91
2021/04/15 04:26:59;;;;;;;2.47;1.30;;;12.10;94.00;;;;;;4963084;28;20239;-92
2021/04/15 04:29:41;;;;;;;1.63;1.20;;;12.00;93.70;;;;;;4958409;28;20215;-91
2021/04/15 04:32:14;;;;;;;3.13;1.23;;;11.90;93.70;;;;;;4971769;28;20244;-91
2021/04/15 04:34:49;;;;;;;3.30;1.30;;;11.90;93.70;;;;;;4979714;28;20218;-91
2021/04/15 04:37:24;;;;;;;1.87;1.23;;;11.80;93.70;;;;;;4988043;28;20542;-91
2021/04/15 04:39:59;;;;;;;1.53;1.10;;;11.70;93.50;;;;;;4988326;28;20297;-91
2021/04/15 04:42:38;;;;;;;3.73;1.60;;;11.70;93.70;;;;;;4984891;28;20399;-92
2021/04/15 04:45:10;;;;;;;3.20;1.27;;;11.60;93.50;;;;;;4981301;28;20211;-90
2021/04/15 04:47:47;;;;;;;2.13;1.50;;;11.60;93.70;;;;;;4976915;28;20239;-91
2021/04/15 04:50:30;;;;;;;1.83;1.33;;;11.60;94.00;;;;;;4978191;28;20249;-91
2021/04/15 04:53:05;;;;;;;1.97;1.47;;;11.50;94.10;;;;;;4977846;28;20210;-91
2021/04/15 04:55:43;;;;;;;2.33;1.50;;;11.40;94.40;;;;;;4976930;28;20209;-91
2021/04/15 04:58:16;;;;;;;3.47;1.30;;;11.30;94.40;;;;;;4974952;28;20322;-91
2021/04/15 05:00:51;;;;;;;1.93;1.33;;;11.30;94.50;;;;;;4976863;28;20730;-91
2021/04/15 05:03:22;;;;;;;4.10;2.53;;;11.20;94.40;;;;;;4975613;28;20252;-92
2021/04/15 05:06:02;;;;;;;8.03;4.53;;;11.20;94.50;;;;;;4976741;28;20684;-91
2021/04/15 05:08:47;;;;;;;6.60;3.63;;;11.10;94.70;;;;;;4974738;28;20239;-91
2021/04/15 05:11:18;;;;;;;4.90;2.60;;;11.10;94.80;;;;;;4975307;28;20257;-91
2021/04/15 05:13:50;;;;;;;4.10;2.77;;;11.10;94.80;;;;;;4974786;28;20306;-92
2021/04/15 05:16:20;;;;;;;5.73;3.13;;;11.00;95.00;;;;;;4976602;28;20210;-92
2021/04/15 05:18:51;;;;;;;2.53;1.70;;;10.90;94.90;;;;;;4976297;28;20242;-92
2021/04/15 05:21:26;;;;;;;2.63;1.40;;;10.90;95.40;;;;;;4974757;28;20343;-92
2021/04/15 05:24:06;;;;;;;5.13;1.60;;;10.80;95.50;;;;;;4978696;28;20335;-92
2021/04/15 05:26:38;;;;;;;1.67;1.30;;;10.80;95.80;;;;;;4980918;28;20211;-92
2021/04/15 05:29:11;;;;;;;3.60;1.40;;;10.70;96.20;;;;;;4988700;28;20187;-92
2021/04/15 05:31:48;;;;;;;1.87;1.40;;;10.60;96.40;;;;;;4977352;28;20219;-90
2021/04/15 05:34:26;;;;;;;2.00;1.40;;;10.60;96.70;;;;;;4978128;28;20195;-92
2021/04/15 05:37:00;;;;;;;2.77;1.50;;;10.60;96.90;;;;;;4958887;28;20219;-92
2021/04/15 05:39:33;;;;;;;6.43;1.23;;;10.50;97.50;;;;;;4961372;28;20719;-92
2021/04/15 05:42:09;;;;;;;1.90;1.20;;;10.50;97.40;;;;;;4960241;28;20211;-92
2021/04/15 05:44:42;;;;;;;2.20;1.17;;;10.40;97.30;;;;;;4961681;28;20213;-91
2021/04/15 05:47:16;;;;;;;2.53;1.27;;;10.40;96.70;;;;;;4964092;29;20232;-90
2021/04/15 05:49:47;;;;;;;3.07;1.40;;;10.40;97.00;;;;;;4965135;28;20207;-90
2021/04/15 05:52:29;;;;;;;5.83;1.37;;;10.30;97.00;;;;;;4964740;28;20214;-90
2021/04/15 05:55:05;;;;;;;2.57;1.20;;;10.30;97.10;;;;;;4988074;28;20238;-90
2021/04/15 05:57:41;;;;;;;2.30;1.30;;;10.30;97.70;;;;;;4982002;28;20210;-90
2021/04/15 06:00:17;;;;;;;2.60;1.50;;;10.20;97.60;;;;;;4979893;28;20210;-90
2021/04/15 06:02:54;;;;;;;3.00;1.30;;;10.30;96.90;;;;;;4980061;28;20221;-90
2021/04/15 06:05:28;;;;;;;2.40;1.37;;;10.20;97.20;;;;;;4981030;28;20233;-90
2021/04/15 06:08:00;;;;;;;2.47;1.47;;;10.20;97.70;;;;;;4979871;28;20242;-90
2021/04/15 06:10:33;;;;;;;2.27;1.37;;;10.20;97.60;;;;;;4982651;28;20242;-90
2021/04/15 06:13:09;;;;;;;3.80;1.30;;;10.10;97.40;;;;;;4988932;28;20217;-91
2021/04/15 06:15:44;;;;;;;4.87;1.43;;;10.10;97.90;;;;;;4986955;28;20203;-91
2021/04/15 06:18:24;;;;;;;2.33;1.20;;;10.10;98.00;;;;;;4988879;28;20281;-91
2021/04/15 06:21:00;;;;;;;2.40;1.20;;;10.00;98.20;;;;;;4986168;28;20625;-88
2021/04/15 06:23:37;;;;;;;2.00;1.33;;;10.10;97.90;;;;;;4980444;28;20238;-91
2021/04/15 06:26:14;;;;;;;2.33;1.50;;;10.10;98.10;;;;;;4979286;28;20210;-91
2021/04/15 06:28:46;;;;;;;2.10;1.43;;;10.10;98.70;;;;;;4977772;28;20237;-91
2021/04/15 06:31:24;;;;;;;3.13;1.80;;;10.00;98.80;;;;;;4978810;28;20283;-91
2021/04/15 06:34:00;;;;;;;2.87;1.60;;;10.00;99.10;;;;;;4979646;28;20253;-92
2021/04/15 06:36:39;;;;;;;4.33;1.60;;;10.00;99.50;;;;;;4979291;28;20232;-92
2021/04/15 06:39:17;;;;;;;2.40;1.37;;;9.90;99.90;;;;;;4979058;28;20203;-91
2021/04/15 06:42:24;;;;;;;2.17;1.90;;;9.90;99.80;;;;;;4979773;28;20218;-91
2021/04/15 06:45:15;;;;;;;3.13;1.80;;;9.90;99.50;;;;;;4979468;28;20207;-90
2021/04/15 06:48:22;;;;;;;6.57;1.90;;;9.80;99.90;;;;;;4982225;28;20269;-90
2021/04/15 06:51:26;;;;;;;3.47;1.97;;;9.80;99.90;;;;;;4963655;28;20238;-91
2021/04/15 06:54:33;;;;;;;2.90;1.90;;;9.70;99.90;;;;;;4961659;28;20207;-91
2021/04/15 06:57:37;;;;;;;3.67;1.80;;;9.70;99.90;;;;;;4958511;28;20405;-91
2021/04/15 07:00:23;;;;;;;3.67;2.13;;;9.70;99.90;;;;;;4960764;28;20268;-91
2021/04/15 07:03:08;;;;;;;2.70;1.67;;;9.70;99.90;;;;;;4961092;28;20334;-91
2021/04/15 07:05:45;;;;;;;3.07;1.40;;;9.70;99.90;;;;;;4960627;28;20216;-91
2021/04/15 07:08:36;;;;;;;3.83;2.10;;;9.60;99.90;;;;;;4962888;28;20235;-91
2021/04/15 07:11:16;;;;;;;3.07;1.70;;;9.60;99.90;;;;;;4959701;28;20638;-93
2021/04/15 07:14:12;;;;;;;3.17;1.53;;;9.50;99.90;;;;;;4959164;28;20249;-91
2021/04/15 07:17:25;;;;;;;2.93;1.63;;;9.60;99.90;;;;;;4964390;28;20216;-91
2021/04/15 07:20:46;;;;;;;2.30;1.37;;;9.60;99.90;;;;;;4964029;28;20204;-91
2021/04/15 07:24:12;;;;;;;6.47;2.27;;;9.50;99.90;;;;;;4969125;28;20214;-91
2021/04/15 07:26:56;;;;;;;3.27;1.67;;;9.50;99.90;;;;;;4978111;28;20742;-92
2021/04/15 07:29:44;;;;;;;3.90;1.90;;;9.60;99.90;;;;;;4978541;28;20630;-91
2021/04/15 07:32:52;;;;;;;2.63;1.40;;;9.60;99.90;;;;;;4977749;28;20242;-92
2021/04/15 07:35:44;;;;;;;3.33;1.63;;;9.60;99.90;;;;;;4978322;28;20250;-92
2021/04/15 07:38:49;;;;;;;5.50;1.47;;;9.50;99.90;;;;;;4974043;28;20604;-92
2021/04/15 07:41:28;;;;;;;1.70;1.20;;;9.50;99.90;;;;;;4977932;28;20262;-91
2021/04/15 07:44:24;;;;;;;2.43;1.30;;;9.50;99.90;;;;;;4980146;28;20270;-91
2021/04/15 07:47:17;;;;;;;3.87;1.67;;;9.50;99.90;;;;;;4985658;28;20611;-91
2021/04/15 07:50:17;;;;;;;5.53;1.80;;;9.40;99.90;;;;;;4986873;28;20207;-90
2021/04/15 07:53:23;;;;;;;4.87;1.27;;;9.30;99.90;;;;;;4997536;28;20258;-90
2021/04/15 07:56:29;;;;;;;2.87;1.23;;;9.40;99.90;;;;;;4988277;28;20207;-89
2021/04/15 07:59:13;;;;;;;1.87;1.20;;;9.40;99.90;;;;;;4959773;28;20220;-91
2021/04/15 08:02:20;;;;;;;3.07;1.30;;;9.30;99.90;;;;;;4961100;28;20203;-90
2021/04/15 08:05:28;;;;;;;1.47;1.20;;;9.20;99.90;;;;;;4955099;28;20648;-91
2021/04/15 08:08:25;;;;;;;3.87;2.30;;;9.20;99.90;;;;;;4963016;28;20230;-90
2021/04/15 08:11:28;;;;;;;3.13;1.50;;;9.20;99.90;;;;;;4936943;28;20206;-89
2021/04/15 08:14:26;;;;;;;2.20;1.63;;;9.10;99.90;;;;;;4966327;28;20249;-90
2021/04/15 08:17:10;;;;;;;2.93;1.57;;;9.10;99.90;;;;;;4965568;29;20242;-90
2021/04/15 08:20:14;;;;;;;2.23;1.30;;;9.00;99.90;;;;;;4964549;29;20558;-91
2021/04/15 08:23:26;;;;;;;4.20;1.30;;;9.00;99.90;;;;;;4960791;28;20234;-91
2021/04/15 08:26:28;;;;;;;2.43;1.20;;;9.00;99.90;;;;;;4977565;28;20232;-91
2021/04/15 08:29:39;;;;;;;2.17;1.23;;;9.00;99.90;;;;;;4977351;28;20235;-91
2021/04/15 08:32:22;;;;;;;1.50;1.37;;;8.90;99.90;;;;;;4918845;29;20209;-92
2021/04/15 08:35:03;;;;;;;1.50;1.07;;;8.90;99.90;;;;;;4970888;28;20249;-91
2021/04/15 08:37:48;;;;;;;4.10;1.40;;;8.90;99.90;;;;;;4977387;28;20238;-91
2021/04/15 08:40:33;;;;;;;1.90;1.20;;;9.00;99.90;;;;;;4977257;28;20215;-91
2021/04/15 08:43:21;;;;;;;1.87;0.87;;;9.00;99.90;;;;;;4975613;28;20202;-91
2021/04/15 08:45:56;;;;;;;1.73;1.63;;;8.90;99.90;;;;;;4976655;28;20207;-91
2021/04/15 08:48:38;;;;;;;1.93;1.27;;;8.90;99.90;;;;;;4976272;28;20320;-90
2021/04/15 08:51:36;;;;;;;1.10;1.00;;;8.90;99.90;;;;;;4976691;28;20206;-91
2021/04/15 08:54:29;;;;;;;2.40;1.13;;;8.80;99.90;;;;;;4976731;28;20305;-91
2021/04/15 08:57:04;;;;;;;2.90;1.00;;;8.80;99.90;;;;;;4969441;28;20210;-90
2021/04/15 08:59:46;;;;;;;3.70;1.30;;;8.80;99.90;;;;;;4982374;28;20216;-91
2021/04/15 09:02:23;;;;;;;1.93;1.30;;;8.80;99.90;;;;;;4984242;28;20206;-90
2021/04/15 09:05:03;;;;;;;1.80;1.40;;;8.70;99.90;;;;;;4979076;28;20564;-91
2021/04/15 09:07:41;;;;;;;4.37;1.50;;;8.70;99.90;;;;;;4978980;28;20235;-91
2021/04/15 09:10:22;;;;;;;1.40;1.00;;;8.60;99.90;;;;;;4976326;28;20205;-90
2021/04/15 09:13:08;;;;;;;2.53;1.20;;;8.60;99.90;;;;;;4977439;28;20683;-89
2021/04/15 09:15:48;;;;;;;1.43;1.30;;;8.50;99.90;;;;;;4976942;28;20310;-91
2021/04/15 09:18:26;;;;;;;4.97;1.60;;;8.50;99.90;;;;;;4980175;28;20228;-90
2021/04/15 09:21:12;;;;;;;2.83;1.30;;;8.30;99.90;;;;;;4975294;28;20207;-90
2021/04/15 09:23:52;;;;;;;1.40;1.23;;;8.20;99.90;;;;;;4980612;28;20259;-91
2021/04/15 09:26:59;;;;;;;3.50;1.10;;;8.20;99.90;;;;;;4976570;28;20210;-90
2021/04/15 09:29:38;;;;;;;1.93;1.20;;;8.10;99.90;;;;;;4975509;28;20214;-90
2021/04/15 09:32:14;;;;;;;1.63;1.20;;;8.00;99.90;;;;;;4975338;28;20234;-90
2021/04/15 09:35:10;;;;;;;3.70;1.30;;;7.90;99.90;;;;;;4976103;28;20215;-89
2021/04/15 09:38:19;;;;;;;3.93;1.10;;;7.80;99.90;;;;;;4975554;28;20215;-91
2021/04/15 09:41:11;;;;;;;6.40;1.87;;;7.80;99.90;;;;;;4977281;28;20232;-91
2021/04/15 09:44:03;;;;;;;1.57;1.30;;;7.70;99.90;;;;;;4971520;28;20341;-92
2021/04/15 09:46:48;;;;;;;2.80;1.30;;;7.60;99.90;;;;;;4976506;28;20217;-91
2021/04/15 09:49:28;;;;;;;3.37;1.50;;;7.60;99.90;;;;;;4975734;28;20233;-91
2021/04/15 09:52:35;;;;;;;6.03;1.30;;;7.50;99.90;;;;;;4975328;28;20218;-91
2021/04/15 09:55:32;;;;;;;1.87;1.53;;;7.50;99.90;;;;;;4976133;28;20247;-92
2021/04/15 09:58:15;;;;;;;3.23;1.20;;;7.50;99.90;;;;;;4976034;28;20224;-90
2021/04/15 10:00:57;;;;;;;2.13;1.20;;;7.40;99.90;;;;;;4976638;28;20241;-90
2021/04/15 10:03:57;;;;;;;4.27;1.53;;;7.40;99.90;;;;;;4975382;28;20233;-90
2021/04/15 10:06:31;;;;;;;3.60;1.40;;;7.30;99.90;;;;;;4976069;28;20679;-90
2021/04/15 10:09:37;;;;;;;2.03;1.40;;;7.30;99.90;;;;;;4976322;28;20240;-91
2021/04/15 10:12:28;;;;;;;1.70;1.30;;;7.30;99.90;;;;;;4995364;28;20212;-90
2021/04/15 10:15:29;;;;;;;1.70;1.40;;;7.20;99.90;;;;;;4996068;28;20211;-91
2021/04/15 10:21:50;;;;;;;3.13;1.30;;;7.20;99.90;;;;;;4922657;29;20270;-92
2021/04/15 10:25:12;;;;;;;1.93;1.50;;;7.20;99.90;;;;;;4922342;29;20210;-91
2021/04/15 10:28:23;;;;;;;2.40;1.20;;;7.10;99.90;;;;;;4981621;28;20265;-90
2021/04/15 10:31:37;;;;;;;2.80;1.40;;;7.00;99.90;;;;;;4986663;28;20283;-90
2021/04/15 10:34:47;;;;;;;1.20;1.10;;;7.00;99.90;;;;;;5005552;28;20210;-91
2021/04/15 10:37:55;;;;;;;2.07;1.50;;;6.90;99.90;;;;;;5003756;28;20206;-89
2021/04/15 10:40:52;;;;;;;2.43;1.27;;;6.90;99.90;;;;;;5005620;28;20204;-89
2021/04/15 10:44:07;;;;;;;2.43;1.40;;;6.90;99.90;;;;;;5005831;28;20239;-91
2021/04/15 10:46:58;;;;;;;3.00;1.97;;;6.90;99.90;;;;;;4960475;29;20207;-90
2021/04/15 10:49:43;;;;;;;2.83;1.33;;;6.80;99.90;;;;;;5002268;28;20240;-89
2021/04/15 10:52:26;;;;;;;2.53;1.37;;;6.90;99.90;;;;;;5000847;28;20208;-90
2021/04/15 10:55:14;;;;;;;3.73;1.47;;;6.80;99.90;;;;;;5001743;28;20214;-91
2021/04/15 10:57:45;;;;;;;2.33;1.70;;;6.70;99.90;;;;;;4992846;28;20270;-90
2021/04/15 11:00:31;;;;;;;2.50;1.40;;;6.70;99.90;;;;;;4979608;28;20211;-91
2021/04/15 11:03:17;;;;;;;1.83;1.30;;;6.70;99.90;;;;;;4979849;28;20211;-90
2021/04/15 11:05:52;;;;;;;2.00;1.50;;;6.60;99.90;;;;;;4979734;28;20236;-91
2021/04/15 11:08:29;;;;;;;1.80;1.33;;;6.60;99.90;;;;;;4979595;28;20242;-90
2021/04/15 11:11:15;;;;;;;2.07;1.67;;;6.50;99.90;;;;;;4979225;28;20210;-90
2021/04/15 11:13:48;;;;;;;2.63;1.70;;;6.40;99.90;;;;;;4978932;28;20252;-90
2021/04/15 11:16:21;;;;;;;2.23;1.50;;;6.40;99.90;;;;;;4979109;28;20242;-90
2021/04/15 11:18:51;;;;;;;5.33;1.60;;;6.40;99.90;;;;;;4979493;28;20720;-91
2021/04/15 11:21:29;;;;;;;4.53;1.80;;;6.30;99.90;;;;;;4979044;28;20212;-90
2021/04/15 11:24:30;;;;;;;2.17;1.90;;;6.30;99.90;;;;;;4978929;28;20301;-91
2021/04/15 11:27:02;;;;;;;2.17;1.60;;;6.30;99.90;;;;;;4978767;28;20212;-91
2021/04/15 11:29:40;;;;;;;5.07;1.97;;;6.30;99.90;;;;;;4978308;28;20264;-90
2021/04/15 11:32:36;;;;;;;4.03;2.10;;;6.20;99.90;;;;;;4978225;28;20718;-91
2021/04/15 11:35:14;;;;;;;2.83;1.80;;;6.20;99.90;;;;;;4977876;28;20222;-90
2021/04/15 11:37:49;;;;;;;2.87;1.70;;;6.20;99.90;;;;;;4978316;28;20214;-91
2021/04/15 11:40:35;;;;;;;4.33;2.03;;;6.20;99.90;;;;;;4978594;28;20210;-91
2021/04/15 11:43:24;;;;;;;3.07;1.83;;;6.10;99.90;;;;;;4978244;28;20215;-91
2021/04/15 11:45:57;;;;;;;3.20;2.00;;;6.10;99.90;;;;;;4978196;28;20210;-90
2021/04/15 11:48:31;;;;;;;3.77;1.83;;;6.00;99.90;;;;;;4978041;28;20231;-91
2021/04/15 11:51:14;;;;;;;3.73;1.80;;;6.00;99.90;;;;;;4978310;28;20204;-90
2021/04/15 11:53:50;;;;;;;4.33;2.00;;;6.00;99.90;;;;;;4978648;28;20207;-91
2021/04/15 11:56:32;;;;;;;3.97;1.70;;;6.00;99.90;;;;;;4978562;28;20215;-90
2021/04/15 11:59:25;;;;;;;2.87;1.90;;;6.00;99.90;;;;;;4978291;28;20210;-90
2021/04/15 12:02:15;;;;;;;4.30;1.60;;;6.10;99.90;;;;;;4978174;28;20204;-89
2021/04/15 12:04:45;;;;;;;2.93;1.73;;;6.10;99.90;;;;;;4979095;28;20208;-90
2021/04/15 12:07:23;;;;;;;1.50;1.40;;;6.00;99.90;;;;;;4978206;28;20628;-90
2021/04/15 12:09:56;;;;;;;2.47;1.47;;;6.00;99.90;;;;;;4978776;28;20265;-89
2021/04/15 12:12:33;;;;;;;3.10;1.40;;;6.00;99.90;;;;;;4978340;28;20241;-90
2021/04/15 12:15:06;;;;;;;2.17;1.67;;;6.00;99.90;;;;;;4979493;28;20214;-90
2021/04/15 12:17:44;;;;;;;1.90;1.63;;;6.00;99.90;;;;;;4981970;28;20217;-90
2021/04/15 12:20:23;;;;;;;4.30;1.60;;;6.00;99.90;;;;;;4982904;28;20227;-90
2021/04/15 12:23:02;;;;;;;1.60;1.30;;;6.00;99.90;;;;;;4979792;28;20240;-90
2021/04/15 12:25:40;;;;;;;4.77;1.50;;;6.00;99.90;;;;;;4994048;28;20207;-90
2021/04/15 12:28:32;;;;;;;2.73;1.70;;;5.90;99.90;;;;;;4997395;28;20262;-92
2021/04/15 12:31:11;;;;;;;4.07;1.70;;;6.10;99.90;;;;;;4988611;28;20299;-91
2021/04/15 12:33:48;;;;;;;2.70;2.00;;;6.00;99.90;;;;;;4985339;28;20206;-89
2021/04/15 12:36:24;;;;;;;2.33;1.77;;;5.90;99.90;;;;;;4984232;28;20211;-91
2021/04/15 12:38:59;;;;;;;3.90;2.20;;;5.80;99.90;;;;;;4983285;28;20207;-92
2021/04/15 12:41:32;;;;;;;3.70;1.77;;;5.80;99.90;;;;;;4979092;28;20273;-91
2021/04/15 12:44:10;;;;;;;2.57;1.80;;;5.80;99.90;;;;;;4978265;28;20218;-90
2021/04/15 12:46:43;;;;;;;4.10;2.10;;;5.70;99.90;;;;;;4979222;28;20306;-90
2021/04/15 12:49:19;;;;;;;4.03;2.10;;;5.70;99.90;;;;;;4979788;28;20235;-90
2021/04/15 12:51:53;;;;;;;2.83;2.13;;;5.70;99.90;;;;;;4976299;28;20206;-90
2021/04/15 12:54:29;;;;;;;4.70;1.90;;;5.60;99.90;;;;;;4961565;28;20581;-90
2021/04/15 12:57:03;;;;;;;2.83;1.93;;;5.60;99.90;;;;;;4961955;28;20306;-91
2021/04/15 12:59:37;;;;;;;4.93;1.80;;;5.50;99.90;;;;;;4962262;28;20231;-90
2021/04/15 13:02:19;;;;;;;2.67;1.60;;;5.50;99.90;;;;;;4961487;28;20219;-89
2021/04/15 13:04:54;;;;;;;3.57;1.60;;;5.50;99.90;;;;;;4962130;28;20211;-88
2021/04/15 13:07:35;;;;;;;1.70;1.47;;;5.50;99.90;;;;;;4961318;29;20258;-90
2021/04/15 13:10:30;;;;;;;4.13;1.83;;;5.50;99.90;;;;;;4977195;28;20604;-91
2021/04/15 13:13:22;;;;;;;2.33;1.30;;;5.50;99.90;;;;;;4962627;29;20216;-90
2021/04/15 13:15:52;;;;;;;2.73;1.67;;;5.50;99.90;;;;;;4964387;28;20571;-91
2021/04/15 13:18:45;;;;;;;2.30;1.37;;;5.50;99.90;;;;;;4962309;28;20219;-90
2021/04/15 13:21:28;;;;;;;2.93;1.47;;;5.50;99.90;;;;;;4963935;28;20215;-91
2021/04/15 13:23:58;;;;;;;3.30;1.60;;;5.50;99.90;;;;;;4966724;28;20243;-91
2021/04/15 13:26:37;;;;;;;3.80;1.60;;;5.60;99.90;;;;;;4965549;29;20587;-90
2021/04/15 13:29:30;;;;;;;2.27;1.60;;;5.50;99.90;;;;;;4964344;28;20240;-91
2021/04/15 13:32:02;;;;;;;2.03;1.60;;;5.50;99.90;;;;;;4959003;29;20204;-91
2021/04/15 13:35:02;;;;;;;2.27;1.40;;;5.50;99.90;;;;;;4957146;29;20215;-92
2021/04/15 13:37:48;;;;;;;2.60;1.30;;;5.60;99.90;;;;;;4956443;28;20680;-92
2021/04/15 13:40:45;;;;;;;2.57;1.50;;;5.60;99.90;;;;;;4957147;28;20218;-91
2021/04/15 13:43:44;;;;;;;1.40;1.30;;;5.60;99.90;;;;;;4957339;29;20211;-90
2021/04/15 13:46:41;;;;;;;1.77;1.43;;;5.60;99.90;;;;;;4928459;29;20212;-91
2021/04/15 13:49:39;;;;;;;2.13;1.60;;;5.60;99.90;;;;;;4960732;29;20287;-90
2021/04/15 13:52:28;;;;;;;2.20;1.63;;;5.60;99.90;;;;;;4956538;29;20307;-91
2021/04/15 13:55:18;;;;;;;1.83;1.40;;;5.70;99.90;;;;;;4957094;29;20219;-91
2021/04/15 13:57:49;;;;;;;1.90;1.47;;;5.80;99.90;;;;;;4958200;28;20286;-91
2021/04/15 14:00:38;;;;;;;1.80;1.40;;;5.80;99.90;;;;;;4961497;28;20223;-91
2021/04/15 14:03:34;;;;;;;2.90;1.40;;;5.70;99.90;;;;;;4964033;28;20215;-91
2021/04/15 14:06:09;;;;;;;5.23;1.40;;;5.80;99.90;;;;;;4961224;28;20224;-91
2021/04/15 14:09:01;;;;;;;6.20;1.40;;;5.80;99.90;;;;;;4963665;28;20237;-90
2021/04/15 14:11:50;;;;;;;7.63;1.73;;;5.90;99.90;;;;;;4959730;28;20639;-91
2021/04/15 14:14:42;;;;;;;3.73;1.10;;;6.00;99.90;;;;;;4962828;28;20238;-91